Time;durP1;ratioP1;P1;durP2;ratioP2;P2;SDS_P1;SDS_P2;PMS_P1;PMS_P2;Temp;Humidity;BMP_temperature;BMP_pressure;BME280_temperature;BME280_humidity;BME280_pressure;Samples;Min_cycle;Max_cycle;Signal;HPM_P1;HPM_P2
2021/09/01 00:00:59;;;;;;;13.57;10.50;;;;;;;;;;5110409;28;20028;-58
2021/09/01 00:03:24;;;;;;;10.82;9.30;;;;;;;;;;5110531;28;20023;-58
2021/09/01 00:05:49;;;;;;;12.63;9.85;;;;;;;;;;5112641;28;20024;-58
2021/09/01 00:08:15;;;;;;;10.38;8.38;;;;;;;;;;5113301;28;20020;-59
2021/09/01 00:10:40;;;;;;;12.10;9.90;;;;;;;;;;5112493;28;20030;-54
2021/09/01 00:13:05;;;;;;;12.35;7.93;;;;;;;;;;5109955;28;20031;-58
2021/09/01 00:15:31;;;;;;;9.68;7.65;;;;;;;;;;5110850;28;20496;-57
2021/09/01 00:17:56;;;;;;;10.77;8.27;;;;;;;;;;5112802;28;20374;-57
2021/09/01 00:20:22;;;;;;;10.98;7.82;;;;;;;;;;5113064;28;20012;-57
2021/09/01 00:22:48;;;;;;;7.60;6.35;;;;;;;;;;5112209;28;20509;-57
2021/09/01 00:25:13;;;;;;;9.48;6.60;;;;;;;;;;5112278;28;20107;-58
2021/09/01 00:27:38;;;;;;;9.38;6.72;;;;;;;;;;5112120;28;20018;-57
2021/09/01 00:30:04;;;;;;;8.55;6.68;;;;;;;;;;5112962;28;20051;-57
2021/09/01 00:32:29;;;;;;;7.28;6.57;;;;;;;;;;5107297;28;20020;-58
2021/09/01 00:34:54;;;;;;;7.50;6.70;;;;;;;;;;5106444;28;20199;-58
2021/09/01 00:37:19;;;;;;;9.43;6.78;;;;;;;;;;5112548;28;20050;-57
2021/09/01 00:39:45;;;;;;;10.45;7.13;;;;;;;;;;5112058;28;20032;-57
2021/09/01 00:42:10;;;;;;;9.48;8.25;;;;;;;;;;5111513;28;20008;-57
2021/09/01 00:44:35;;;;;;;11.18;7.25;;;;;;;;;;5112334;28;20449;-60
2021/09/01 00:47:03;;;;;;;7.60;6.80;;;;;;;;;;5112342;28;20028;-59
2021/09/01 00:49:29;;;;;;;7.60;6.70;;;;;;;;;;5109007;28;20012;-58
2021/09/01 00:51:55;;;;;;;8.60;7.30;;;;;;;;;;5110755;28;20542;-58
2021/09/01 00:54:20;;;;;;;8.32;7.53;;;;;;;;;;5111506;28;20072;-58
2021/09/01 00:56:50;;;;;;;7.70;6.95;;;;;;;;;;5121840;27;20119;-58
2021/09/01 00:59:16;;;;;;;8.32;6.70;;;;;;;;;;5091783;28;20032;-57
2021/09/01 01:01:43;;;;;;;8.35;6.97;;;;;;;;;;5106282;28;20038;-57
2021/09/01 01:04:08;;;;;;;10.90;7.22;;;;;;;;;;5111165;28;20020;-57
2021/09/01 01:06:33;;;;;;;8.77;7.43;;;;;;;;;;5111976;28;20435;-58
2021/09/01 01:08:58;;;;;;;10.10;7.57;;;;;;;;;;5103717;28;20028;-58
2021/09/01 01:11:24;;;;;;;8.50;7.60;;;;;;;;;;5107212;28;20028;-58
2021/09/01 01:13:49;;;;;;;9.93;7.85;;;;;;;;;;5111620;28;20531;-58
2021/09/01 01:16:15;;;;;;;14.18;7.72;;;;;;;;;;5112095;28;20030;-57
2021/09/01 01:18:42;;;;;;;9.75;7.07;;;;;;;;;;5112121;28;20099;-56
2021/09/01 01:21:08;;;;;;;14.65;8.15;;;;;;;;;;5112289;28;20044;-58
2021/09/01 01:23:33;;;;;;;9.63;7.43;;;;;;;;;;5111563;28;20046;-58
2021/09/01 01:25:58;;;;;;;10.48;7.70;;;;;;;;;;5109238;28;20024;-57
2021/09/01 01:28:23;;;;;;;9.48;7.97;;;;;;;;;;5111300;28;20040;-57
2021/09/01 01:30:49;;;;;;;10.60;8.20;;;;;;;;;;5111615;28;20106;-58
2021/09/01 01:33:14;;;;;;;8.60;7.65;;;;;;;;;;5111939;28;20056;-59
2021/09/01 01:35:41;;;;;;;10.20;7.75;;;;;;;;;;5111647;28;20024;-58
2021/09/01 01:38:07;;;;;;;9.05;7.68;;;;;;;;;;5111065;28;20085;-56
2021/09/01 01:40:33;;;;;;;11.35;8.25;;;;;;;;;;5111266;28;20150;-57
2021/09/01 01:42:59;;;;;;;9.05;8.00;;;;;;;;;;5106703;28;20055;-59
2021/09/01 01:45:29;;;;;;;13.10;8.07;;;;;;;;;;5111775;28;20590;-58
2021/09/01 01:47:54;;;;;;;11.30;8.60;;;;;;;;;;5111479;28;20114;-58
2021/09/01 01:50:19;;;;;;;10.18;8.07;;;;;;;;;;5111583;28;20102;-59
2021/09/01 01:52:45;;;;;;;9.20;7.88;;;;;;;;;;5111352;28;20033;-58
2021/09/01 01:55:10;;;;;;;10.25;8.68;;;;;;;;;;5096842;28;20043;-58
2021/09/01 01:57:35;;;;;;;11.10;8.65;;;;;;;;;;5110652;28;20023;-59
2021/09/01 02:00:01;;;;;;;13.13;8.82;;;;;;;;;;5105833;28;20073;-56
2021/09/01 02:02:30;;;;;;;11.82;9.27;;;;;;;;;;5111607;28;20020;-56
2021/09/01 02:04:56;;;;;;;13.93;9.73;;;;;;;;;;5111411;28;20023;-57
2021/09/01 02:07:21;;;;;;;10.65;8.82;;;;;;;;;;5111394;28;20097;-57
2021/09/01 02:09:46;;;;;;;13.98;9.55;;;;;;;;;;5110682;28;20020;-57
2021/09/01 02:12:11;;;;;;;15.68;9.82;;;;;;;;;;5111835;28;20020;-58
2021/09/01 02:14:36;;;;;;;14.90;10.68;;;;;;;;;;5110661;28;20023;-58
2021/09/01 02:17:02;;;;;;;14.30;11.10;;;;;;;;;;5112735;28;20024;-58
2021/09/01 02:19:27;;;;;;;14.50;11.02;;;;;;;;;;5114770;28;20012;-58
2021/09/01 02:21:52;;;;;;;17.02;12.63;;;;;;;;;;5115302;28;20100;-58
2021/09/01 02:24:17;;;;;;;16.65;11.15;;;;;;;;;;5114794;28;20415;-58
2021/09/01 02:26:42;;;;;;;16.08;11.75;;;;;;;;;;5114767;28;20045;-59
2021/09/01 02:29:08;;;;;;;15.35;11.80;;;;;;;;;;5114507;28;20047;-58
2021/09/01 02:31:33;;;;;;;14.85;11.70;;;;;;;;;;5110345;28;20095;-58
2021/09/01 02:33:58;;;;;;;13.00;11.02;;;;;;;;;;5114032;28;20028;-58
2021/09/01 02:36:23;;;;;;;14.10;11.95;;;;;;;;;;5114830;28;20114;-57
2021/09/01 02:38:48;;;;;;;15.45;12.50;;;;;;;;;;5114764;28;20012;-58
2021/09/01 02:41:14;;;;;;;18.42;12.95;;;;;;;;;;5114389;28;20026;-57
2021/09/01 02:43:39;;;;;;;20.30;12.85;;;;;;;;;;5114299;28;20015;-59
2021/09/01 02:46:04;;;;;;;20.05;14.05;;;;;;;;;;5114509;28;20290;-58
2021/09/01 02:48:30;;;;;;;17.20;12.27;;;;;;;;;;5112388;28;20055;-59
2021/09/01 02:50:55;;;;;;;15.45;12.52;;;;;;;;;;5110491;28;20112;-58
2021/09/01 02:53:21;;;;;;;21.80;13.25;;;;;;;;;;5113973;28;20039;-58
2021/09/01 02:55:46;;;;;;;17.88;13.70;;;;;;;;;;5113918;28;20027;-57
2021/09/01 02:58:11;;;;;;;20.20;14.52;;;;;;;;;;5114606;28;20011;-57
2021/09/01 03:00:37;;;;;;;19.33;14.55;;;;;;;;;;5114355;28;20019;-58
2021/09/01 03:03:02;;;;;;;20.08;14.27;;;;;;;;;;5114102;28;20016;-59
2021/09/01 03:05:27;;;;;;;21.95;15.52;;;;;;;;;;5108885;28;20327;-59
2021/09/01 03:07:52;;;;;;;19.25;14.48;;;;;;;;;;5114266;28;20047;-58
2021/09/01 03:10:18;;;;;;;20.92;14.73;;;;;;;;;;5113653;28;20111;-58
2021/09/01 03:12:43;;;;;;;17.65;14.10;;;;;;;;;;5114185;28;20016;-57
2021/09/01 03:15:08;;;;;;;19.08;14.60;;;;;;;;;;5113762;28;20106;-57
2021/09/01 03:17:33;;;;;;;20.25;15.07;;;;;;;;;;5113968;28;20432;-58
2021/09/01 03:19:59;;;;;;;21.58;14.52;;;;;;;;;;5114152;28;20023;-58
2021/09/01 03:22:24;;;;;;;18.60;15.10;;;;;;;;;;5110182;28;20032;-57
2021/09/01 03:24:49;;;;;;;18.30;14.73;;;;;;;;;;5112220;28;20027;-56
2021/09/01 03:27:14;;;;;;;20.90;15.23;;;;;;;;;;5112303;28;20030;-58
2021/09/01 03:29:39;;;;;;;18.23;14.50;;;;;;;;;;5113534;28;20047;-57
2021/09/01 03:32:05;;;;;;;21.40;16.08;;;;;;;;;;5113799;28;20169;-56
2021/09/01 03:34:30;;;;;;;19.83;15.18;;;;;;;;;;5113509;28;20140;-56
2021/09/01 03:36:55;;;;;;;22.90;16.73;;;;;;;;;;5112978;28;20040;-58
2021/09/01 03:39:20;;;;;;;22.40;16.77;;;;;;;;;;5108557;28;20450;-58
2021/09/01 03:41:46;;;;;;;23.50;16.92;;;;;;;;;;5113258;28;20370;-58
2021/09/01 03:44:11;;;;;;;19.40;15.95;;;;;;;;;;5113418;28;20027;-57
2021/09/01 03:46:36;;;;;;;16.70;13.25;;;;;;;;;;5112887;28;20028;-58
2021/09/01 03:49:01;;;;;;;19.30;14.82;;;;;;;;;;5113391;28;20072;-57
2021/09/01 03:51:27;;;;;;;14.63;12.88;;;;;;;;;;5112833;28;20023;-59
2021/09/01 03:53:52;;;;;;;15.23;12.93;;;;;;;;;;5113117;28;20028;-58
2021/09/01 03:56:17;;;;;;;15.52;12.40;;;;;;;;;;5107984;28;20473;-56
2021/09/01 03:58:42;;;;;;;15.85;12.43;;;;;;;;;;5093150;28;20020;-57
2021/09/01 04:01:08;;;;;;;16.48;13.38;;;;;;;;;;5093125;28;20383;-59
2021/09/01 04:03:33;;;;;;;16.45;13.68;;;;;;;;;;5108052;28;20481;-58
2021/09/01 04:05:58;;;;;;;15.95;12.23;;;;;;;;;;5112921;28;20019;-59
2021/09/01 04:08:24;;;;;;;16.75;13.52;;;;;;;;;;5113452;28;20374;-59
2021/09/01 04:10:49;;;;;;;17.85;13.13;;;;;;;;;;5112574;28;20065;-59
2021/09/01 04:13:15;;;;;;;16.52;13.23;;;;;;;;;;5112857;28;20059;-58
2021/09/01 04:15:40;;;;;;;18.17;13.93;;;;;;;;;;5110531;28;20426;-58
2021/09/01 04:18:05;;;;;;;20.40;14.40;;;;;;;;;;5113095;28;20027;-58
2021/09/01 04:20:30;;;;;;;19.17;14.43;;;;;;;;;;5113129;28;20474;-57
2021/09/01 04:22:55;;;;;;;16.88;13.38;;;;;;;;;;5112951;27;20036;-58
2021/09/01 04:25:21;;;;;;;18.20;13.05;;;;;;;;;;5111515;28;20020;-58
2021/09/01 04:27:46;;;;;;;16.60;13.50;;;;;;;;;;5112536;28;20106;-57
2021/09/01 04:30:11;;;;;;;20.15;13.82;;;;;;;;;;5112928;28;20050;-58
2021/09/01 04:32:36;;;;;;;16.75;13.48;;;;;;;;;;5110683;28;20118;-57
2021/09/01 04:35:02;;;;;;;17.60;13.90;;;;;;;;;;5112170;28;20014;-59
2021/09/01 04:37:27;;;;;;;17.17;14.30;;;;;;;;;;5112227;28;20413;-57
2021/09/01 04:39:52;;;;;;;18.25;14.68;;;;;;;;;;5111427;28;20393;-57
2021/09/01 04:42:17;;;;;;;16.60;14.13;;;;;;;;;;5112385;28;20031;-56
2021/09/01 04:44:43;;;;;;;18.25;14.35;;;;;;;;;;5112284;28;20061;-58
2021/09/01 04:47:08;;;;;;;17.05;13.90;;;;;;;;;;5112050;28;20028;-57
2021/09/01 04:49:33;;;;;;;20.58;14.25;;;;;;;;;;5112389;27;20425;-58
2021/09/01 04:51:58;;;;;;;16.88;13.48;;;;;;;;;;5113148;27;20028;-59
2021/09/01 04:54:24;;;;;;;16.95;14.25;;;;;;;;;;5111809;28;20024;-58
2021/09/01 04:56:49;;;;;;;18.52;13.95;;;;;;;;;;5112390;28;20024;-58
2021/09/01 04:59:14;;;;;;;18.75;14.15;;;;;;;;;;5111696;28;20054;-58
2021/09/01 05:01:39;;;;;;;19.40;13.63;;;;;;;;;;5112204;28;20023;-58
2021/09/01 05:04:05;;;;;;;17.02;13.27;;;;;;;;;;5111938;28;20024;-58
2021/09/01 05:06:30;;;;;;;16.85;14.05;;;;;;;;;;5108988;28;20081;-58
2021/09/01 05:08:55;;;;;;;17.65;13.70;;;;;;;;;;5112264;28;20118;-58
2021/09/01 05:11:20;;;;;;;18.30;14.68;;;;;;;;;;5111316;28;20031;-58
2021/09/01 05:13:45;;;;;;;18.05;13.65;;;;;;;;;;5111756;28;20037;-59
2021/09/01 05:16:12;;;;;;;17.23;14.02;;;;;;;;;;5111698;28;20156;-58
2021/09/01 05:18:37;;;;;;;17.52;14.20;;;;;;;;;;5111460;28;20073;-58
2021/09/01 05:21:04;;;;;;;16.33;12.93;;;;;;;;;;5112648;28;20400;-58
2021/09/01 05:23:33;;;;;;;19.63;14.07;;;;;;;;;;5109751;28;20465;-58
2021/09/01 05:26:09;;;;;;;15.23;12.90;;;;;;;;;;5110807;28;20091;-59
2021/09/01 05:28:35;;;;;;;19.00;13.52;;;;;;;;;;5110787;28;20040;-58
2021/09/01 05:31:01;;;;;;;17.58;13.82;;;;;;;;;;5107431;28;20374;-59
2021/09/01 05:33:28;;;;;;;17.50;13.43;;;;;;;;;;5111225;28;20028;-58
2021/09/01 05:35:53;;;;;;;16.85;12.77;;;;;;;;;;5111266;28;20402;-59
2021/09/01 05:38:18;;;;;;;16.30;13.30;;;;;;;;;;5111241;28;20057;-58
2021/09/01 05:40:45;;;;;;;16.02;12.50;;;;;;;;;;5110862;28;20024;-59
2021/09/01 05:43:11;;;;;;;14.25;12.75;;;;;;;;;;5111547;28;20106;-57
2021/09/01 05:45:36;;;;;;;15.85;13.32;;;;;;;;;;5110927;28;20153;-56
2021/09/01 05:48:02;;;;;;;16.85;12.70;;;;;;;;;;5110631;28;20023;-58
2021/09/01 05:50:28;;;;;;;15.82;12.25;;;;;;;;;;5093496;28;20048;-58
2021/09/01 05:52:53;;;;;;;15.18;11.75;;;;;;;;;;5094902;28;20039;-57
2021/09/01 05:55:19;;;;;;;15.48;11.65;;;;;;;;;;5105748;28;20023;-57
2021/09/01 05:57:44;;;;;;;15.07;12.50;;;;;;;;;;5113644;28;20024;-57
2021/09/01 06:00:13;;;;;;;15.45;12.52;;;;;;;;;;5116877;27;20026;-58
2021/09/01 06:02:44;;;;;;;17.38;13.55;;;;;;;;;;5115668;27;20428;-57
2021/09/01 06:05:10;;;;;;;24.88;16.55;;;;;;;;;;5116828;27;20347;-57
2021/09/01 06:07:38;;;;;;;29.33;16.63;;;;;;;;;;5114348;28;20072;-58
2021/09/01 06:10:03;;;;;;;27.67;17.02;;;;;;;;;;5107717;28;20020;-58
2021/09/01 06:12:29;;;;;;;33.10;18.35;;;;;;;;;;5104587;28;20041;-58
2021/09/01 06:14:55;;;;;;;31.75;18.35;;;;;;;;;;5114211;28;20114;-58
2021/09/01 06:17:20;;;;;;;30.02;17.83;;;;;;;;;;5113815;28;20031;-58
2021/09/01 06:19:46;;;;;;;29.88;17.20;;;;;;;;;;5114512;28;20034;-58
2021/09/01 06:22:12;;;;;;;44.58;20.80;;;;;;;;;;5114779;28;20035;-58
2021/09/01 06:24:38;;;;;;;36.03;20.63;;;;;;;;;;5113616;28;20011;-59
2021/09/01 06:27:03;;;;;;;37.67;19.58;;;;;;;;;;5114330;28;20054;-58
2021/09/01 06:29:28;;;;;;;39.70;20.88;;;;;;;;;;5113398;28;20051;-58
2021/09/01 06:31:54;;;;;;;41.03;20.55;;;;;;;;;;5114773;28;20020;-58
2021/09/01 06:34:19;;;;;;;38.50;18.13;;;;;;;;;;5113751;28;20153;-58
2021/09/01 06:36:45;;;;;;;39.63;20.23;;;;;;;;;;5114784;28;20547;-59
2021/09/01 06:39:11;;;;;;;37.85;20.92;;;;;;;;;;5114783;28;20039;-58
2021/09/01 06:41:36;;;;;;;36.85;20.35;;;;;;;;;;5111817;28;20024;-58
2021/09/01 06:44:01;;;;;;;36.70;19.08;;;;;;;;;;5114676;28;20016;-59
2021/09/01 06:46:26;;;;;;;41.80;22.52;;;;;;;;;;5114379;28;20079;-57
2021/09/01 06:48:52;;;;;;;35.92;20.15;;;;;;;;;;5113994;28;20024;-58
2021/09/01 06:51:17;;;;;;;39.50;23.52;;;;;;;;;;5114023;28;20103;-58
2021/09/01 06:53:42;;;;;;;37.75;22.88;;;;;;;;;;5114477;28;20030;-59
2021/09/01 06:56:08;;;;;;;36.55;21.95;;;;;;;;;;5113691;28;20023;-58
2021/09/01 06:58:34;;;;;;;36.95;19.95;;;;;;;;;;5110528;28;20080;-59
2021/09/01 07:01:00;;;;;;;35.00;20.35;;;;;;;;;;5113735;28;20019;-60
2021/09/01 07:03:25;;;;;;;39.42;23.13;;;;;;;;;;5113685;28;20053;-58
2021/09/01 07:05:50;;;;;;;45.60;24.45;;;;;;;;;;5114946;28;20031;-60
2021/09/01 07:08:16;;;;;;;47.40;25.70;;;;;;;;;;5113759;28;20486;-59
2021/09/01 07:10:42;;;;;;;47.72;27.05;;;;;;;;;;5113522;28;20019;-58
2021/09/01 07:13:07;;;;;;;54.53;29.00;;;;;;;;;;5114160;28;20020;-58
2021/09/01 07:15:32;;;;;;;48.90;27.90;;;;;;;;;;5113200;28;20180;-58
2021/09/01 07:17:57;;;;;;;52.50;28.00;;;;;;;;;;5110416;28;20024;-58
2021/09/01 07:20:23;;;;;;;44.28;27.35;;;;;;;;;;5107320;28;20015;-58
2021/09/01 07:22:49;;;;;;;46.08;27.02;;;;;;;;;;5110113;28;20096;-59
2021/09/01 07:25:14;;;;;;;45.97;26.90;;;;;;;;;;5113575;28;20024;-58
2021/09/01 07:27:39;;;;;;;40.80;22.85;;;;;;;;;;5112889;28;20019;-58
2021/09/01 07:30:05;;;;;;;40.80;25.02;;;;;;;;;;5113629;28;20023;-58
2021/09/01 07:32:30;;;;;;;39.33;25.38;;;;;;;;;;5113571;28;20020;-58
2021/09/01 07:34:55;;;;;;;44.63;27.63;;;;;;;;;;5113394;28;20055;-57
2021/09/01 07:37:21;;;;;;;46.40;26.90;;;;;;;;;;5113963;28;20034;-58
2021/09/01 07:39:46;;;;;;;41.55;26.15;;;;;;;;;;5113003;28;20381;-58
2021/09/01 07:42:11;;;;;;;37.47;26.95;;;;;;;;;;5113560;28;20016;-59
2021/09/01 07:44:36;;;;;;;36.15;24.90;;;;;;;;;;5107824;28;20027;-58
2021/09/01 07:47:02;;;;;;;32.53;19.35;;;;;;;;;;5104265;28;20015;-58
2021/09/01 07:49:28;;;;;;;38.60;26.38;;;;;;;;;;5112918;28;20094;-59
2021/09/01 07:51:54;;;;;;;38.10;26.70;;;;;;;;;;5113076;28;20104;-59
2021/09/01 07:54:20;;;;;;;39.65;26.40;;;;;;;;;;5112971;28;20019;-57
2021/09/01 07:56:45;;;;;;;35.53;25.08;;;;;;;;;;5112393;28;20034;-59
2021/09/01 07:59:10;;;;;;;35.30;26.60;;;;;;;;;;5113501;28;20023;-58
2021/09/01 08:01:35;;;;;;;33.70;25.27;;;;;;;;;;5112863;28;20482;-58
2021/09/01 08:04:00;;;;;;;34.00;26.38;;;;;;;;;;5113072;28;20111;-58
2021/09/01 08:06:26;;;;;;;33.50;24.67;;;;;;;;;;5112967;28;20531;-59
2021/09/01 08:08:51;;;;;;;32.47;25.52;;;;;;;;;;5112597;28;20441;-58
2021/09/01 08:11:16;;;;;;;37.05;27.42;;;;;;;;;;5106884;28;20097;-58
2021/09/01 08:13:42;;;;;;;35.20;25.50;;;;;;;;;;5111479;28;20015;-59
2021/09/01 08:16:08;;;;;;;33.60;25.48;;;;;;;;;;5111912;28;20110;-59
2021/09/01 08:18:33;;;;;;;30.63;21.10;;;;;;;;;;5112563;28;20504;-59
2021/09/01 08:20:58;;;;;;;36.80;25.45;;;;;;;;;;5111776;28;20423;-58
2021/09/01 08:23:23;;;;;;;32.95;25.58;;;;;;;;;;5112360;28;20028;-58
2021/09/01 08:25:48;;;;;;;29.75;25.02;;;;;;;;;;5112109;28;20026;-58
2021/09/01 08:28:14;;;;;;;32.67;25.40;;;;;;;;;;5107560;28;20031;-58
2021/09/01 08:30:39;;;;;;;31.08;25.20;;;;;;;;;;5098439;28;20343;-58
2021/09/01 08:33:04;;;;;;;34.15;25.92;;;;;;;;;;5111394;28;20026;-59
2021/09/01 08:35:30;;;;;;;32.75;25.98;;;;;;;;;;5109278;28;20493;-57
2021/09/01 08:37:55;;;;;;;28.70;24.55;;;;;;;;;;5111806;28;20098;-58
2021/09/01 08:40:20;;;;;;;31.92;26.13;;;;;;;;;;5111003;28;20027;-58
2021/09/01 08:42:46;;;;;;;28.25;24.70;;;;;;;;;;5111508;28;20415;-59
2021/09/01 08:45:12;;;;;;;28.70;25.60;;;;;;;;;;5111544;28;20028;-59
2021/09/01 08:47:38;;;;;;;27.27;22.38;;;;;;;;;;5101973;28;20023;-57
2021/09/01 08:50:04;;;;;;;31.05;26.33;;;;;;;;;;5100945;28;20378;-60
2021/09/01 08:52:30;;;;;;;26.42;23.23;;;;;;;;;;5109970;28;20089;-59
2021/09/01 08:54:55;;;;;;;27.15;23.73;;;;;;;;;;5109798;28;20027;-58
2021/09/01 08:57:20;;;;;;;29.10;23.20;;;;;;;;;;5108431;28;20098;-58
2021/09/01 08:59:45;;;;;;;26.13;23.23;;;;;;;;;;5112043;28;20092;-59
2021/09/01 09:02:11;;;;;;;25.73;22.75;;;;;;;;;;5112597;28;20012;-59
2021/09/01 09:04:38;;;;;;;27.40;24.33;;;;;;;;;;5095264;28;20368;-57
2021/09/01 09:07:04;;;;;;;25.55;22.88;;;;;;;;;;5112033;28;20028;-59
2021/09/01 09:09:30;;;;;;;23.17;20.73;;;;;;;;;;5103172;28;20020;-58
2021/09/01 09:11:56;;;;;;;22.50;20.00;;;;;;;;;;5110833;28;20020;-58
2021/09/01 09:14:21;;;;;;;22.58;20.27;;;;;;;;;;5110752;28;20115;-58
2021/09/01 09:16:57;;;;;;;21.48;18.95;;;;;;;;;;5111407;28;20015;-58
2021/09/01 09:19:40;;;;;;;20.30;18.15;;;;;;;;;;5127756;28;20031;-58
2021/09/01 09:22:05;;;;;;;20.20;18.13;;;;;;;;;;5111442;28;20019;-58
2021/09/01 09:24:33;;;;;;;22.65;19.65;;;;;;;;;;5102177;28;20098;-58
2021/09/01 09:26:58;;;;;;;25.13;19.88;;;;;;;;;;5114688;28;20023;-58
2021/09/01 09:29:23;;;;;;;23.42;19.33;;;;;;;;;;5114915;28;20044;-58
2021/09/01 09:32:03;;;;;;;23.70;21.30;;;;;;;;;;5114187;28;20381;-58
2021/09/01 09:34:33;;;;;;;20.05;17.65;;;;;;;;;;5114812;28;20020;-59
2021/09/01 09:37:08;;;;;;;20.88;17.25;;;;;;;;;;5114673;28;20419;-59
2021/09/01 09:39:33;;;;;;;;;;;;;;;;;;5115520;28;20069;-59
2021/09/01 09:41:58;;;;;;;20.05;17.35;;;;;;;;;;5114838;28;19907;-58
2021/09/01 09:44:26;;;;;;;19.73;17.35;;;;;;;;;;5097088;28;20015;-59
2021/09/01 09:46:51;;;;;;;18.85;16.85;;;;;;;;;;5115570;28;20039;-59
2021/09/01 09:49:16;;;;;;;18.33;16.38;;;;;;;;;;5115655;28;20019;-59
2021/09/01 09:51:42;;;;;;;12.98;11.57;;;;;;;;;;5115658;28;20465;-59
2021/09/01 09:54:17;;;;;;;20.45;18.38;;;;;;;;;;5115043;28;20492;-59
2021/09/01 09:56:44;;;;;;;19.17;17.17;;;;;;;;;;5115330;28;20023;-59
2021/09/01 09:59:13;;;;;;;21.15;18.77;;;;;;;;;;5115815;28;20020;-60
2021/09/01 10:01:38;;;;;;;20.23;17.80;;;;;;;;;;5115406;28;20023;-59
2021/09/01 10:04:04;;;;;;;12.55;10.38;;;;;;;;;;5113752;28;20022;-59
2021/09/01 10:06:30;;;;;;;18.67;16.75;;;;;;;;;;5119277;27;20019;-60
2021/09/01 10:08:55;;;;;;;18.73;16.83;;;;;;;;;;5101889;28;20151;-58
2021/09/01 10:11:21;;;;;;;19.27;17.38;;;;;;;;;;5114172;28;20092;-59
2021/09/01 10:13:47;;;;;;;17.58;15.85;;;;;;;;;;5115393;28;20032;-59
2021/09/01 10:16:13;;;;;;;17.00;15.23;;;;;;;;;;5114644;28;20031;-59
2021/09/01 10:18:39;;;;;;;18.42;16.52;;;;;;;;;;5114858;28;20020;-58
2021/09/01 10:21:05;;;;;;;19.15;17.25;;;;;;;;;;5115641;28;20038;-57
2021/09/01 10:23:36;;;;;;;15.55;13.95;;;;;;;;;;5114361;28;20374;-59
2021/09/01 10:26:01;;;;;;;14.13;12.65;;;;;;;;;;5114628;28;20020;-58
2021/09/01 10:28:30;;;;;;;18.73;16.92;;;;;;;;;;5114756;28;20044;-57
2021/09/01 10:31:13;;;;;;;17.52;15.82;;;;;;;;;;5114696;28;20405;-58
2021/09/01 10:33:41;;;;;;;16.45;14.60;;;;;;;;;;5113885;28;20027;-59
2021/09/01 10:36:24;;;;;;;17.02;15.43;;;;;;;;;;5114538;28;20067;-59
2021/09/01 10:39:10;;;;;;;18.55;16.70;;;;;;;;;;5114916;28;20016;-59
2021/09/01 10:41:35;;;;;;;18.10;16.30;;;;;;;;;;5099535;28;20067;-60
2021/09/01 10:44:12;;;;;;;17.05;15.35;;;;;;;;;;5115029;28;20496;-59
2021/09/01 10:46:50;;;;;;;17.13;15.43;;;;;;;;;;5113555;28;20026;-58
2021/09/01 10:49:15;;;;;;;13.30;11.98;;;;;;;;;;5094367;28;20032;-58
2021/09/01 10:51:46;;;;;;;17.20;15.48;;;;;;;;;;5094256;28;20020;-58
2021/09/01 10:54:30;;;;;;;14.80;13.38;;;;;;;;;;5094064;28;20027;-58
2021/09/01 10:56:56;;;;;;;14.10;12.70;;;;;;;;;;5094793;28;20020;-58
2021/09/01 10:59:28;;;;;;;14.05;12.65;;;;;;;;;;5114021;28;20027;-58
2021/09/01 11:02:05;;;;;;;13.73;12.27;;;;;;;;;;5114495;28;20012;-58
2021/09/01 11:04:31;;;;;;;12.07;10.98;;;;;;;;;;5114064;28;20016;-58
2021/09/01 11:07:01;;;;;;;11.75;10.48;;;;;;;;;;5108177;28;20469;-58
2021/09/01 11:09:26;;;;;;;10.05;9.13;;;;;;;;;;5103394;28;20534;-58
2021/09/01 11:11:52;;;;;;;10.37;9.37;;;;;;;;;;5093244;28;20023;-59
2021/09/01 11:14:32;;;;;;;8.85;7.95;;;;;;;;;;5099839;28;20273;-58
2021/09/01 11:17:00;;;;;;;8.60;7.80;;;;;;;;;;5108958;28;20078;-58
2021/09/01 11:19:26;;;;;;;8.48;7.68;;;;;;;;;;5114179;28;20323;-59
2021/09/01 11:21:51;;;;;;;8.77;7.88;;;;;;;;;;5113309;28;20020;-58
2021/09/01 11:24:17;;;;;;;7.75;7.15;;;;;;;;;;5105507;28;20110;-59
2021/09/01 11:26:43;;;;;;;6.70;6.00;;;;;;;;;;5101815;28;20483;-59
2021/09/01 11:29:10;;;;;;;8.18;6.80;;;;;;;;;;5113767;28;20055;-59
2021/09/01 11:31:45;;;;;;;8.52;7.60;;;;;;;;;;5106457;28;20552;-58
2021/09/01 11:34:12;;;;;;;7.95;7.15;;;;;;;;;;5107855;28;20027;-58
2021/09/01 11:36:37;;;;;;;7.32;6.63;;;;;;;;;;5092882;28;20038;-57
2021/09/01 11:39:02;;;;;;;7.70;7.00;;;;;;;;;;5104910;28;20394;-57
2021/09/01 11:41:28;;;;;;;7.45;6.75;;;;;;;;;;5104237;28;20096;-58
2021/09/01 11:43:59;;;;;;;7.47;6.78;;;;;;;;;;5103256;28;20092;-58
2021/09/01 11:46:25;;;;;;;6.55;5.95;;;;;;;;;;5113164;28;20024;-59
2021/09/01 11:48:50;;;;;;;5.65;5.13;;;;;;;;;;5098192;28;20026;-56
2021/09/01 11:51:19;;;;;;;6.30;5.70;;;;;;;;;;5104151;28;20035;-57
2021/09/01 11:53:44;;;;;;;8.10;6.15;;;;;;;;;;5102164;28;20031;-56
2021/09/01 11:56:10;;;;;;;5.53;5.03;;;;;;;;;;5109216;28;20027;-59
2021/09/01 11:58:36;;;;;;;6.30;5.57;;;;;;;;;;5113043;28;20486;-59
2021/09/01 12:01:05;;;;;;;6.32;5.70;;;;;;;;;;5113256;28;20491;-59
2021/09/01 12:03:31;;;;;;;6.45;5.75;;;;;;;;;;5112718;28;20015;-57
2021/09/01 12:06:08;;;;;;;6.03;5.43;;;;;;;;;;5111700;28;20085;-58
2021/09/01 12:08:40;;;;;;;6.07;5.45;;;;;;;;;;5113240;28;20020;-58
2021/09/01 12:11:05;;;;;;;5.63;5.03;;;;;;;;;;5101967;28;20043;-58
2021/09/01 12:13:51;;;;;;;5.20;4.70;;;;;;;;;;5106274;28;20020;-58
2021/09/01 12:16:24;;;;;;;5.90;5.40;;;;;;;;;;5112629;28;20490;-59
2021/09/01 12:18:54;;;;;;;7.18;6.47;;;;;;;;;;5112858;28;20027;-58
2021/09/01 12:21:20;;;;;;;6.28;5.68;;;;;;;;;;5108533;28;20081;-57
2021/09/01 12:23:46;;;;;;;6.43;5.82;;;;;;;;;;5111667;28;20026;-59
2021/09/01 12:26:13;;;;;;;6.88;5.97;;;;;;;;;;5109281;28;20024;-59
2021/09/01 12:28:42;;;;;;;6.20;5.60;;;;;;;;;;5112548;28;20050;-59
2021/09/01 12:31:17;;;;;;;6.38;5.72;;;;;;;;;;5111678;28;20028;-58
2021/09/01 12:33:42;;;;;;;5.97;5.40;;;;;;;;;;5095381;28;20452;-58
2021/09/01 12:36:07;;;;;;;6.00;5.50;;;;;;;;;;5101334;28;20024;-59
2021/09/01 12:38:32;;;;;;;5.70;5.20;;;;;;;;;;5112152;28;20020;-59
2021/09/01 12:40:58;;;;;;;6.20;5.70;;;;;;;;;;5101592;28;20305;-58
2021/09/01 12:43:23;;;;;;;6.82;6.25;;;;;;;;;;5111567;28;20019;-59
2021/09/01 12:45:58;;;;;;;6.20;5.68;;;;;;;;;;5112294;28;20035;-59
2021/09/01 12:48:31;;;;;;;6.47;5.90;;;;;;;;;;5112773;28;20389;-58
2021/09/01 12:50:58;;;;;;;7.18;6.05;;;;;;;;;;5093365;28;20026;-58
2021/09/01 12:53:23;;;;;;;5.85;5.32;;;;;;;;;;5099793;28;20019;-58
2021/09/01 12:55:52;;;;;;;6.22;5.72;;;;;;;;;;5106041;28;20126;-58
2021/09/01 12:58:18;;;;;;;5.93;5.43;;;;;;;;;;5111895;28;20042;-58
2021/09/01 13:00:43;;;;;;;5.63;4.97;;;;;;;;;;5105854;28;20444;-59
2021/09/01 13:03:09;;;;;;;5.93;5.43;;;;;;;;;;5112016;28;20020;-59
2021/09/01 13:05:34;;;;;;;5.55;5.00;;;;;;;;;;5112114;28;20620;-58
2021/09/01 13:08:00;;;;;;;5.28;4.78;;;;;;;;;;5100273;28;20016;-59
2021/09/01 13:10:25;;;;;;;4.82;4.43;;;;;;;;;;5105428;28;20463;-59
2021/09/01 13:12:53;;;;;;;5.32;4.82;;;;;;;;;;5097687;28;20019;-58
2021/09/01 13:15:18;;;;;;;4.72;4.43;;;;;;;;;;5091658;28;20052;-58
2021/09/01 13:17:43;;;;;;;5.43;4.30;;;;;;;;;;5103467;28;20067;-57
2021/09/01 13:20:13;;;;;;;5.43;4.70;;;;;;;;;;5112059;28;20122;-57
2021/09/01 13:22:39;;;;;;;4.70;4.32;;;;;;;;;;5111218;28;20022;-58
2021/09/01 13:25:05;;;;;;;5.57;4.78;;;;;;;;;;5107849;28;20024;-58
2021/09/01 13:27:30;;;;;;;4.75;4.40;;;;;;;;;;5103536;28;20020;-57
2021/09/01 13:29:56;;;;;;;4.67;4.27;;;;;;;;;;5103525;28;20039;-58
2021/09/01 13:32:22;;;;;;;4.53;4.15;;;;;;;;;;5108547;28;20024;-56
2021/09/01 13:34:47;;;;;;;5.32;3.67;;;;;;;;;;5106096;28;20022;-59
2021/09/01 13:37:12;;;;;;;5.17;4.40;;;;;;;;;;5085974;28;20386;-58
2021/09/01 13:39:37;;;;;;;4.20;3.90;;;;;;;;;;5098000;28;20015;-58
2021/09/01 13:42:04;;;;;;;3.83;3.50;;;;;;;;;;5104628;28;20020;-58
2021/09/01 13:44:29;;;;;;;4.47;4.07;;;;;;;;;;5098239;28;20022;-58
2021/09/01 13:46:54;;;;;;;4.80;4.10;;;;;;;;;;5110460;28;20028;-58
2021/09/01 13:49:19;;;;;;;5.23;3.90;;;;;;;;;;5106605;28;20016;-59
2021/09/01 13:51:45;;;;;;;4.30;3.90;;;;;;;;;;5107392;28;20024;-58
2021/09/01 13:54:10;;;;;;;3.93;3.63;;;;;;;;;;5109421;28;20373;-58
2021/09/01 13:56:35;;;;;;;5.30;4.05;;;;;;;;;;5111142;28;20031;-58
2021/09/01 13:59:00;;;;;;;4.23;3.83;;;;;;;;;;5112080;28;20416;-58
2021/09/01 14:01:26;;;;;;;3.38;3.15;;;;;;;;;;5111214;28;20341;-58
2021/09/01 14:03:54;;;;;;;4.93;4.15;;;;;;;;;;5111439;28;20051;-57
2021/09/01 14:06:22;;;;;;;5.45;4.18;;;;;;;;;;5110805;28;20022;-57
2021/09/01 14:08:47;;;;;;;4.88;4.40;;;;;;;;;;5109983;28;20023;-59
2021/09/01 14:11:13;;;;;;;4.80;4.27;;;;;;;;;;5115423;28;20495;-57
2021/09/01 14:13:39;;;;;;;6.70;5.23;;;;;;;;;;5133978;27;20771;-59
2021/09/01 14:16:04;;;;;;;4.10;3.80;;;;;;;;;;5122878;27;20019;-58
2021/09/01 14:18:29;;;;;;;4.82;4.43;;;;;;;;;;5112455;28;20110;-58
2021/09/01 14:20:55;;;;;;;5.18;4.75;;;;;;;;;;5115065;28;20285;-58